Main page
METAR-TAF:

METAR-TAF

Airports :

Kashan, Iran

latitude: 33-59N, longitude: 051-27E, elevation: 982 m

Current weather observation

The report was made 30 minutes ago, at 20:00 UTC
Wind 4 kt from the West
Temperature 20°C
Humidity 49%
Pressure 1018 hPa
Visibility 10 km or more
Scattered clouds at a height of 4000 ft
Broken clouds at a height of 10000 ft

METAR: OIFK 302000Z 26004KT 9999 SCT040 BKN100 20/09 Q1018

Time: 01:00 (20:30 UTC)


TAF: missing

Weather observations and forecasts of more than 4000 airports (METAR and TAF reports).

The available stations are represented by yellow and red dots on the map.

Hover mouse over dot to see the name of the station.

Then click to see weather observations and forecasts.

To change the map : click on the green buttons with a black cross to zoom in, on the green button with a dash to zoom out, or on the green arrows for adjacent maps.


METAR-TAF: